createdAt,value
2018-03-07T00:00:57.638Z,156.13
2018-03-07T00:03:25.346Z,163.73
2018-03-07T00:05:52.891Z,182.37
2018-03-07T00:08:20.383Z,190.63
2018-03-07T00:10:47.899Z,167.23
2018-03-07T00:13:15.547Z,174.10
2018-03-07T00:15:42.986Z,168.50
2018-03-07T00:18:10.462Z,168.37
2018-03-07T00:20:37.926Z,166.93
2018-03-07T00:23:05.371Z,169.67
2018-03-07T00:25:32.848Z,169.30
2018-03-07T00:28:00.302Z,172.55
2018-03-07T00:30:27.739Z,190.57
2018-03-07T00:32:55.169Z,195.90
2018-03-07T00:35:22.615Z,168.03
2018-03-07T00:37:50.045Z,167.17
2018-03-07T00:40:17.529Z,175.55
2018-03-07T00:42:45.033Z,172.03
2018-03-07T00:45:12.518Z,166.43
2018-03-07T00:47:39.950Z,177.50
2018-03-07T00:50:07.569Z,187.10
2018-03-07T00:52:35.008Z,165.93
2018-03-07T00:55:02.459Z,152.68
2018-03-07T00:57:29.904Z,184.43
2018-03-07T00:59:57.339Z,179.00
2018-03-07T01:02:24.775Z,167.77
2018-03-07T01:04:52.219Z,197.40
2018-03-07T01:07:19.662Z,175.27
2018-03-07T01:09:47.175Z,185.83
2018-03-07T01:12:14.611Z,188.43
2018-03-07T01:14:42.039Z,187.80
2018-03-07T01:17:09.470Z,169.93
2018-03-07T01:19:37.002Z,176.27
2018-03-07T01:22:04.463Z,168.07
2018-03-07T01:24:31.898Z,176.87
2018-03-07T01:26:59.343Z,158.30
2018-03-07T01:29:26.824Z,169.18
2018-03-07T01:31:54.250Z,165.33
2018-03-07T01:34:21.700Z,176.47
2018-03-07T01:36:49.206Z,181.13
2018-03-07T01:39:16.645Z,171.27
2018-03-07T01:41:44.095Z,176.47
2018-03-07T01:44:11.529Z,174.73
2018-03-07T01:46:38.963Z,154.50
2018-03-07T01:49:06.552Z,157.67
2018-03-07T01:51:45.880Z,162.60
2018-03-07T01:54:13.325Z,182.27
2018-03-07T01:56:40.781Z,165.32
2018-03-07T01:59:08.403Z,163.53
2018-03-07T02:01:35.851Z,168.93
2018-03-07T02:04:03.475Z,159.27
2018-03-07T02:06:30.911Z,181.00
2018-03-07T02:08:58.384Z,160.87
2018-03-07T02:11:25.815Z,174.62
2018-03-07T02:13:53.251Z,185.93
2018-03-07T02:16:20.721Z,162.70
2018-03-07T02:18:48.180Z,181.35
2018-03-07T02:21:15.610Z,172.73
2018-03-07T02:23:43.054Z,178.57
2018-03-07T02:26:10.692Z,171.43
2018-03-07T02:28:38.128Z,171.47
2018-03-07T02:31:06.639Z,168.07
2018-03-07T02:33:34.070Z,155.90
2018-03-07T02:36:01.508Z,155.50
2018-03-07T02:38:28.950Z,167.33
2018-03-07T02:40:56.382Z,163.50
2018-03-07T02:43:23.810Z,145.93
2018-03-07T02:45:51.273Z,170.30
2018-03-07T02:48:18.793Z,174.47
2018-03-07T02:50:46.248Z,165.73
2018-03-07T02:53:13.692Z,166.32
2018-03-07T02:55:41.135Z,174.90
2018-03-07T02:58:08.583Z,161.37
2018-03-07T03:00:36.039Z,162.80
2018-03-07T03:03:03.476Z,173.90
2018-03-07T03:05:30.916Z,158.90
2018-03-07T03:07:58.362Z,162.48
2018-03-07T03:10:25.787Z,169.27
2018-03-07T03:12:53.224Z,178.60
2018-03-07T03:15:20.676Z,152.93
2018-03-07T03:17:48.111Z,171.67
2018-03-07T03:20:15.614Z,165.07
2018-03-07T03:22:43.050Z,164.77
2018-03-07T03:25:10.478Z,162.67
2018-03-07T03:27:37.918Z,172.30
2018-03-07T03:30:05.367Z,169.05
2018-03-07T03:32:33.682Z,171.45
2018-03-07T03:35:01.116Z,174.63
2018-03-07T03:37:28.662Z,160.00
2018-03-07T03:39:56.141Z,172.97
2018-03-07T03:42:23.570Z,158.40
2018-03-07T03:44:51.026Z,179.13
2018-03-07T03:47:18.487Z,151.37
2018-03-07T03:49:45.917Z,168.97
2018-03-07T03:52:13.571Z,165.93
2018-03-07T03:54:41.019Z,173.13
2018-03-07T03:57:08.468Z,149.90
2018-03-07T03:59:35.911Z,162.07
2018-03-07T04:02:03.341Z,163.70
2018-03-07T04:04:30.787Z,178.40
2018-03-07T04:06:58.235Z,167.47
2018-03-07T04:09:25.767Z,170.10
2018-03-07T04:11:53.263Z,150.90
2018-03-07T04:14:20.702Z,155.00
2018-03-07T04:16:48.140Z,153.93
2018-03-07T04:19:15.574Z,145.47
2018-03-07T04:21:43.087Z,159.97
2018-03-07T04:24:10.523Z,140.77
2018-03-07T04:26:37.956Z,146.13
2018-03-07T04:29:05.394Z,139.98
2018-03-07T04:31:32.826Z,152.60
2018-03-07T04:34:00.266Z,147.00
2018-03-07T04:36:27.718Z,133.30
2018-03-07T04:38:55.195Z,153.50
2018-03-07T04:41:22.751Z,148.60
2018-03-07T04:43:50.612Z,141.07
2018-03-07T04:46:18.045Z,129.57
2018-03-07T04:48:45.524Z,127.75
2018-03-07T04:51:12.971Z,129.03
2018-03-07T04:53:40.411Z,138.80
2018-03-07T04:56:07.843Z,128.52
2018-03-07T04:58:35.299Z,148.37
2018-03-07T05:01:02.735Z,130.75
2018-03-07T05:03:30.169Z,143.40
2018-03-07T05:05:57.679Z,142.30
2018-03-07T05:08:25.121Z,140.00
2018-03-07T05:10:52.555Z,156.23
2018-03-07T05:13:20.083Z,144.60
2018-03-07T05:15:47.514Z,136.73
2018-03-07T05:18:15.023Z,137.17
2018-03-07T05:20:42.658Z,136.20
2018-03-07T05:23:10.139Z,136.40
2018-03-07T05:25:37.956Z,144.23
2018-03-07T05:28:05.407Z,138.27
2018-03-07T05:30:32.926Z,130.80
2018-03-07T05:33:00.358Z,138.05
2018-03-07T05:35:27.818Z,138.27
2018-03-07T05:37:55.268Z,144.80
2018-03-07T05:40:22.754Z,143.77
2018-03-07T05:42:50.201Z,141.93
2018-03-07T05:45:17.630Z,135.67
2018-03-07T05:47:45.078Z,150.05
2018-03-07T05:50:12.528Z,147.85
2018-03-07T05:52:39.966Z,140.87
2018-03-07T05:55:07.401Z,132.75
2018-03-07T05:57:34.842Z,140.45
2018-03-07T06:00:02.317Z,153.70
2018-03-07T06:02:29.763Z,132.87
2018-03-07T06:04:57.226Z,129.83
2018-03-07T06:07:24.659Z,137.67
2018-03-07T06:09:52.092Z,137.80
2018-03-07T06:12:19.550Z,133.68
2018-03-07T06:14:46.983Z,136.60
2018-03-07T06:17:14.434Z,136.68
2018-03-07T06:19:41.880Z,130.53
2018-03-07T06:22:09.315Z,135.30
2018-03-07T06:27:06.549Z,151.27
2018-03-07T06:29:33.986Z,131.15
2018-03-07T06:32:01.430Z,132.37
2018-03-07T06:34:28.894Z,109.37
2018-03-07T06:36:56.362Z,120.73
2018-03-07T06:39:23.918Z,124.23
2018-03-07T06:41:51.362Z,122.27
2018-03-07T06:44:19.720Z,117.63
2018-03-07T06:46:47.213Z,121.40
2018-03-07T06:49:14.838Z,113.03
2018-03-07T06:51:42.591Z,120.13
2018-03-07T06:54:10.068Z,125.13
2018-03-07T06:56:37.542Z,115.47
2018-03-07T06:59:05.104Z,126.38
2018-03-07T07:01:32.539Z,122.47
2018-03-07T07:04:00.032Z,120.50
2018-03-07T07:06:27.467Z,115.50
2018-03-07T07:08:54.931Z,108.60
2018-03-07T07:11:22.375Z,106.87
2018-03-07T07:13:49.827Z,105.10
2018-03-07T07:16:17.295Z,104.33
2018-03-07T07:18:44.737Z,107.10
2018-03-07T07:21:12.181Z,105.95
2018-03-07T07:23:39.659Z,108.87
2018-03-07T07:26:07.095Z,92.00
2018-03-07T07:28:34.574Z,98.12
2018-03-07T07:31:02.022Z,89.77
2018-03-07T07:33:29.490Z,95.30
2018-03-07T07:35:56.982Z,87.47
2018-03-07T07:38:24.418Z,88.57
2018-03-07T07:40:52.040Z,101.97
2018-03-07T07:43:19.502Z,100.90
2018-03-07T07:45:47.144Z,82.40
2018-03-07T07:48:14.608Z,89.80
2018-03-07T07:50:42.069Z,95.70
2018-03-07T07:53:09.484Z,93.60
2018-03-07T07:55:37.016Z,88.60
2018-03-07T07:58:04.476Z,101.37
2018-03-07T08:00:31.907Z,93.17
2018-03-07T08:02:59.353Z,80.35
2018-03-07T08:05:26.811Z,87.10
2018-03-07T08:07:54.252Z,84.67
2018-03-07T08:10:21.701Z,93.00
2018-03-07T08:12:49.128Z,70.33
2018-03-07T08:15:16.563Z,58.25
2018-03-07T08:17:44.007Z,60.60
2018-03-07T08:20:11.459Z,63.97
2018-03-07T08:22:38.921Z,65.00
2018-03-07T08:25:06.363Z,66.40
2018-03-07T08:27:33.859Z,65.90
2018-03-07T08:30:01.296Z,70.87
2018-03-07T08:32:28.739Z,60.72
2018-03-07T08:34:56.300Z,63.73
2018-03-07T08:37:23.730Z,62.83
2018-03-07T08:39:51.170Z,63.00
2018-03-07T08:42:18.658Z,56.97
2018-03-07T08:44:46.171Z,68.13
2018-03-07T08:47:13.622Z,61.13
2018-03-07T08:49:41.058Z,58.93
2018-03-07T08:52:08.522Z,60.43
2018-03-07T08:54:35.990Z,53.83
2018-03-07T08:57:03.422Z,58.13
2018-03-07T08:59:30.861Z,66.90
2018-03-07T09:01:58.312Z,53.38
2018-03-07T09:04:25.825Z,63.47
2018-03-07T09:06:53.319Z,46.43
2018-03-07T09:09:20.763Z,41.55
2018-03-07T09:11:48.303Z,36.57
2018-03-07T09:14:15.731Z,33.10
2018-03-07T09:16:43.174Z,35.20
2018-03-07T09:19:10.619Z,31.62
2018-03-07T09:21:38.068Z,29.80
2018-03-07T09:24:05.667Z,29.87
2018-03-07T09:26:33.097Z,25.17
2018-03-07T09:29:00.668Z,24.07
2018-03-07T09:31:28.077Z,25.23
2018-03-07T09:33:55.510Z,24.42
2018-03-07T09:36:22.954Z,21.77
2018-03-07T09:38:50.404Z,21.92
2018-03-07T09:41:17.831Z,20.62
2018-03-07T09:43:45.323Z,22.93
2018-03-07T09:46:13.107Z,20.20
2018-03-07T09:48:40.563Z,19.52
2018-03-07T09:51:08.008Z,21.83
2018-03-07T09:53:35.464Z,21.33
2018-03-07T09:56:02.950Z,19.00
2018-03-07T09:58:30.347Z,23.20
2018-03-07T10:00:57.828Z,20.03
2018-03-07T10:03:25.314Z,19.03
2018-03-07T10:05:52.762Z,18.87
2018-03-07T10:08:20.211Z,20.67
2018-03-07T10:10:47.655Z,19.77
2018-03-07T10:13:15.086Z,20.62
2018-03-07T10:15:42.531Z,18.43
2018-03-07T10:18:09.968Z,18.80
2018-03-07T10:20:37.404Z,16.35
2018-03-07T10:23:04.852Z,17.33
2018-03-07T10:25:32.291Z,19.80
2018-03-07T10:27:59.732Z,17.77
2018-03-07T10:30:27.812Z,18.90
2018-03-07T10:32:55.243Z,16.13
2018-03-07T10:35:22.787Z,15.88
2018-03-07T10:37:50.238Z,15.47
2018-03-07T10:40:17.693Z,17.08
2018-03-07T10:42:45.125Z,14.27
2018-03-07T10:45:12.577Z,15.97
2018-03-07T10:47:40.065Z,14.70
2018-03-07T10:50:07.546Z,14.80
2018-03-07T10:52:35.015Z,16.20
2018-03-07T10:55:02.557Z,15.10
2018-03-07T10:57:30.002Z,15.77
2018-03-07T10:59:57.453Z,14.90
2018-03-07T11:02:24.884Z,14.27
2018-03-07T11:04:52.388Z,12.97
2018-03-07T11:07:19.850Z,14.07
2018-03-07T11:09:47.289Z,14.77
2018-03-07T11:12:14.742Z,13.40
2018-03-07T11:14:42.198Z,13.20
2018-03-07T11:17:09.660Z,14.82
2018-03-07T11:19:37.105Z,13.70
2018-03-07T11:22:04.561Z,15.18
2018-03-07T11:24:32.003Z,15.30
2018-03-07T11:26:59.458Z,15.23
2018-03-07T11:29:26.947Z,14.37
2018-03-07T11:31:54.391Z,13.53
2018-03-07T11:34:21.881Z,13.03
2018-03-07T11:36:49.804Z,12.70
2018-03-07T11:39:17.256Z,14.10
2018-03-07T11:41:44.733Z,14.33
2018-03-07T11:44:12.175Z,12.60
2018-03-07T11:46:39.656Z,15.43
2018-03-07T11:49:07.096Z,14.40
2018-03-07T11:51:34.562Z,13.90
2018-03-07T11:54:02.026Z,14.40
2018-03-07T11:56:29.466Z,14.27
2018-03-07T11:58:56.912Z,14.93
2018-03-07T12:01:24.654Z,15.48
2018-03-07T12:03:52.099Z,16.93
2018-03-07T12:06:19.572Z,17.12
2018-03-07T12:08:47.085Z,14.80
2018-03-07T12:11:14.548Z,13.87
2018-03-07T12:13:42.179Z,14.60
2018-03-07T12:16:09.658Z,15.70
2018-03-07T12:18:37.095Z,15.13
2018-03-07T12:21:04.575Z,14.90
2018-03-07T12:23:32.017Z,14.57
2018-03-07T12:25:59.492Z,14.77
2018-03-07T12:28:26.943Z,15.80
2018-03-07T12:30:54.398Z,16.40
2018-03-07T12:33:21.834Z,17.23
2018-03-07T12:35:49.293Z,15.93
2018-03-07T12:38:16.735Z,16.57
2018-03-07T12:40:44.227Z,16.48
2018-03-07T12:43:11.683Z,16.57
2018-03-07T12:45:39.133Z,16.60
2018-03-07T12:48:06.563Z,16.47
2018-03-07T12:50:34.038Z,15.10
2018-03-07T12:53:01.511Z,15.40
2018-03-07T12:55:28.978Z,15.93
2018-03-07T12:57:56.440Z,13.80
2018-03-07T13:00:23.878Z,11.90
2018-03-07T13:02:51.346Z,11.37
2018-03-07T13:05:18.815Z,10.20
2018-03-07T13:07:46.269Z,11.50
2018-03-07T13:10:13.704Z,9.77
2018-03-07T13:12:41.152Z,9.80
2018-03-07T13:15:08.604Z,9.88
2018-03-07T13:17:36.292Z,9.60
2018-03-07T13:20:03.756Z,11.13
2018-03-07T13:22:31.185Z,10.00
2018-03-07T13:24:58.939Z,8.32
2018-03-07T13:27:26.387Z,8.43
2018-03-07T13:29:53.819Z,7.90
2018-03-07T13:32:21.251Z,8.20
2018-03-07T13:34:48.703Z,7.75
2018-03-07T13:37:16.165Z,7.80
2018-03-07T13:39:43.614Z,7.70
2018-03-07T13:42:11.056Z,8.10
2018-03-07T13:44:38.497Z,8.20
2018-03-07T13:47:05.922Z,9.07
2018-03-07T13:49:33.355Z,7.50
2018-03-07T13:52:00.780Z,8.37
2018-03-07T13:54:28.210Z,9.20
2018-03-07T13:56:55.714Z,7.87
2018-03-07T13:59:23.149Z,7.17
2018-03-07T14:01:50.662Z,6.60
2018-03-07T14:04:18.124Z,7.60
2018-03-07T14:06:45.782Z,5.85
2018-03-07T14:09:13.218Z,5.80
2018-03-07T14:11:40.664Z,4.40
2018-03-07T14:14:08.088Z,4.27
2018-03-07T14:16:35.596Z,4.50
2018-03-07T14:19:03.147Z,4.83
2018-03-07T14:21:30.579Z,4.57
2018-03-07T15:05:37.295Z,2.60
2018-03-07T15:08:04.726Z,2.40
2018-03-07T15:10:32.170Z,2.65
2018-03-07T15:12:59.624Z,2.60
2018-03-07T15:15:27.057Z,2.30
2018-03-07T15:17:54.504Z,2.60
2018-03-07T15:20:21.954Z,3.03
2018-03-07T15:22:49.530Z,2.90
2018-03-07T15:25:16.974Z,2.77
2018-03-07T15:27:44.411Z,4.53
2018-03-07T15:30:12.755Z,2.60
2018-03-07T15:32:40.191Z,2.60
2018-03-07T15:35:07.655Z,3.30
2018-03-07T15:37:35.061Z,3.27
2018-03-07T15:40:02.502Z,3.53
2018-03-07T15:42:29.941Z,5.13
2018-03-07T15:44:57.386Z,5.83
2018-03-07T15:47:24.858Z,4.33
2018-03-07T15:49:52.291Z,5.10
2018-03-07T15:52:19.722Z,5.10
2018-03-07T15:54:47.222Z,4.87
2018-03-07T15:57:14.651Z,6.00
2018-03-07T15:59:42.082Z,5.32
2018-03-07T16:02:09.602Z,5.30
2018-03-07T16:04:37.031Z,5.40
2018-03-07T16:07:04.458Z,5.57
2018-03-07T16:09:32.042Z,5.63
2018-03-07T16:11:59.466Z,4.73
2018-03-07T16:14:26.894Z,5.60
2018-03-07T16:16:54.355Z,5.77
2018-03-07T16:19:21.781Z,5.00
2018-03-07T16:21:49.208Z,5.83
2018-03-07T16:24:16.728Z,5.47
2018-03-07T16:26:44.159Z,5.47
2018-03-07T16:29:11.581Z,5.80
2018-03-07T16:31:39.740Z,8.93
2018-03-07T16:34:07.185Z,7.97
2018-03-07T16:36:34.730Z,15.17
2018-03-07T16:39:02.170Z,10.43
2018-03-07T16:41:29.591Z,6.03
2018-03-07T16:43:57.023Z,6.90
2018-03-07T16:46:24.547Z,9.77
2018-03-07T16:48:52.011Z,41.13
2018-03-07T16:51:19.441Z,16.60
2018-03-07T16:53:51.843Z,16.65
2018-03-07T16:56:19.282Z,13.50
2018-03-07T16:58:47.734Z,9.57
2018-03-07T17:01:15.234Z,9.97
2018-03-07T17:03:42.699Z,19.40
2018-03-07T17:06:10.126Z,11.10
2018-03-07T17:08:37.607Z,10.60
2018-03-07T17:11:05.030Z,7.50
2018-03-07T17:13:32.509Z,10.90
2018-03-07T17:15:59.946Z,8.77
2018-03-07T17:18:27.370Z,8.47
2018-03-07T17:20:54.898Z,12.30
2018-03-07T17:23:22.348Z,14.20
2018-03-07T17:25:49.832Z,11.38
2018-03-07T17:28:17.375Z,12.23
2018-03-07T17:30:44.808Z,9.37
2018-03-07T17:33:12.242Z,9.07
2018-03-07T17:35:39.676Z,9.30
2018-03-07T17:38:07.117Z,9.83
2018-03-07T17:40:34.599Z,14.52
2018-03-07T17:43:02.017Z,8.70
2018-03-07T17:45:29.449Z,8.80
2018-03-07T17:47:56.888Z,10.23
2018-03-07T17:50:25.351Z,11.00
2018-03-07T17:52:52.862Z,10.80
2018-03-07T17:55:20.325Z,10.80
2018-03-07T17:57:47.874Z,7.80
2018-03-07T18:00:15.334Z,8.70
2018-03-07T18:02:42.878Z,6.90
2018-03-07T18:05:10.302Z,9.33
2018-03-07T18:07:37.742Z,6.63
2018-03-07T18:10:05.159Z,7.07
2018-03-07T18:12:32.583Z,5.65
2018-03-07T18:15:00.027Z,4.37
2018-03-07T18:17:27.545Z,5.53
2018-03-07T18:19:54.962Z,5.50
2018-03-07T18:22:22.494Z,7.00
2018-03-07T18:24:49.970Z,4.30
2018-03-07T18:27:17.396Z,4.40
2018-03-07T18:29:44.822Z,7.73
2018-03-07T18:32:12.258Z,5.20
2018-03-07T18:34:40.087Z,4.28
2018-03-07T18:37:07.683Z,4.53
2018-03-07T18:39:35.129Z,3.10
2018-03-07T18:42:02.639Z,4.63
2018-03-07T18:44:30.081Z,3.73
2018-03-07T18:46:57.717Z,2.20
2018-03-07T18:49:25.213Z,2.30
2018-03-07T18:51:54.403Z,4.23
2018-03-07T18:54:21.835Z,3.90
2018-03-07T18:56:49.321Z,2.47
2018-03-07T18:59:16.747Z,2.43
2018-03-07T19:01:44.235Z,2.23
2018-03-07T19:04:11.654Z,3.40
2018-03-07T19:06:39.088Z,3.10
2018-03-07T19:09:06.506Z,2.37
2018-03-07T19:11:33.962Z,2.27
2018-03-07T19:14:01.404Z,2.80
2018-03-07T19:16:28.863Z,3.20
2018-03-07T19:18:56.330Z,3.03
2018-03-07T19:21:23.795Z,3.00
2018-03-07T19:23:51.310Z,3.43
2018-03-07T19:26:18.716Z,2.20
2018-03-07T19:28:46.314Z,2.30
2018-03-07T19:31:13.746Z,3.10
2018-03-07T19:33:41.162Z,4.37
2018-03-07T19:36:08.607Z,3.23
2018-03-07T19:38:36.040Z,3.93
2018-03-07T19:41:03.489Z,2.80
2018-03-07T19:43:30.927Z,2.30
2018-03-07T19:45:58.357Z,3.30
2018-03-07T19:48:25.831Z,2.65
2018-03-07T19:50:53.267Z,5.95
2018-03-07T19:53:20.747Z,2.42
2018-03-07T19:55:48.287Z,3.90
2018-03-07T19:58:15.787Z,3.07
2018-03-07T20:00:43.301Z,2.70
2018-03-07T20:03:10.754Z,2.93
2018-03-07T20:05:38.243Z,2.77
2018-03-07T20:08:05.747Z,3.10
2018-03-07T20:10:33.206Z,3.67
2018-03-07T20:13:00.975Z,2.67
2018-03-07T20:15:28.498Z,5.37
2018-03-07T20:17:56.042Z,2.90
2018-03-07T20:20:23.560Z,2.92
2018-03-07T20:22:51.047Z,3.87
2018-03-07T20:25:18.893Z,4.87
2018-03-07T20:27:46.505Z,4.37
2018-03-07T20:30:14.313Z,4.50
2018-03-07T20:32:41.975Z,3.50
2018-03-07T20:35:09.460Z,3.72
2018-03-07T20:37:37.139Z,4.53
2018-03-07T20:40:04.876Z,5.60
2018-03-07T20:42:32.325Z,6.28
2018-03-07T20:45:00.555Z,3.73
2018-03-07T20:47:28.005Z,4.63
2018-03-07T20:49:55.459Z,5.25
2018-03-07T20:52:22.935Z,4.47
2018-03-07T20:54:50.363Z,4.75
2018-03-07T20:57:17.809Z,4.13
2018-03-07T20:59:45.226Z,4.53
2018-03-07T21:02:12.650Z,5.90
2018-03-07T21:04:40.153Z,6.03
2018-03-07T21:07:07.658Z,6.17
2018-03-07T21:09:35.548Z,6.40
2018-03-07T21:12:02.980Z,11.60
2018-03-07T21:14:30.432Z,5.90
2018-03-07T21:16:57.893Z,6.20
2018-03-07T21:19:25.348Z,9.17
2018-03-07T21:21:52.981Z,6.33
2018-03-07T21:24:20.407Z,5.00
2018-03-07T21:26:47.840Z,6.23
2018-03-07T21:29:15.287Z,5.70
2018-03-07T21:31:42.744Z,9.07
2018-03-07T21:34:10.177Z,4.67
2018-03-07T21:36:37.603Z,8.50
